sensor_id;sensor_type;location;lat;lon;timestamp;P1;durP1;ratioP1;P2;durP2;ratioP2
45905;SDS011;31619;49.008;12.106;2022-10-28T00:00:45;9.50;;;7.75;;
45905;SDS011;31619;49.008;12.106;2022-10-28T00:03:11;9.45;;;8.50;;
45905;SDS011;31619;49.008;12.106;2022-10-28T00:05:37;11.50;;;9.57;;
45905;SDS011;31619;49.008;12.106;2022-10-28T00:08:02;10.15;;;8.50;;
45905;SDS011;31619;49.008;12.106;2022-10-28T00:10:28;15.82;;;10.23;;
45905;SDS011;31619;49.008;12.106;2022-10-28T00:12:54;10.50;;;8.18;;
45905;SDS011;31619;49.008;12.106;2022-10-28T00:15:19;10.48;;;9.38;;
45905;SDS011;31619;49.008;12.106;2022-10-28T00:17:45;10.98;;;8.90;;
45905;SDS011;31619;49.008;12.106;2022-10-28T00:20:11;9.80;;;8.80;;
45905;SDS011;31619;49.008;12.106;2022-10-28T00:22:36;12.00;;;9.45;;
45905;SDS011;31619;49.008;12.106;2022-10-28T00:25:02;9.40;;;8.50;;
45905;SDS011;31619;49.008;12.106;2022-10-28T00:27:28;12.60;;;9.43;;
45905;SDS011;31619;49.008;12.106;2022-10-28T00:29:54;11.43;;;9.13;;
45905;SDS011;31619;49.008;12.106;2022-10-28T00:32:20;10.38;;;9.15;;
45905;SDS011;31619;49.008;12.106;2022-10-28T00:34:46;12.82;;;9.95;;
45905;SDS011;31619;49.008;12.106;2022-10-28T00:37:12;10.77;;;9.13;;
45905;SDS011;31619;49.008;12.106;2022-10-28T00:39:37;9.88;;;8.98;;
45905;SDS011;31619;49.008;12.106;2022-10-28T00:42:03;10.40;;;9.40;;
45905;SDS011;31619;49.008;12.106;2022-10-28T00:50:38;10.35;;;9.30;;
45905;SDS011;31619;49.008;12.106;2022-10-28T00:53:07;11.13;;;9.38;;
45905;SDS011;31619;49.008;12.106;2022-10-28T00:55:46;13.32;;;10.10;;
45905;SDS011;31619;49.008;12.106;2022-10-28T00:58:13;11.93;;;9.90;;
45905;SDS011;31619;49.008;12.106;2022-10-28T01:00:40;11.10;;;9.50;;
45905;SDS011;31619;49.008;12.106;2022-10-28T01:03:06;14.23;;;9.43;;
45905;SDS011;31619;49.008;12.106;2022-10-28T01:05:32;11.43;;;8.93;;
45905;SDS011;31619;49.008;12.106;2022-10-28T01:08:01;10.95;;;8.35;;
45905;SDS011;31619;49.008;12.106;2022-10-28T01:10:34;11.07;;;8.98;;
45905;SDS011;31619;49.008;12.106;2022-10-28T01:13:16;9.95;;;9.05;;
45905;SDS011;31619;49.008;12.106;2022-10-28T01:15:59;11.43;;;8.90;;
45905;SDS011;31619;49.008;12.106;2022-10-28T01:34:52;10.15;;;8.75;;
45905;SDS011;31619;49.008;12.106;2022-10-28T01:40:15;10.52;;;8.68;;
45905;SDS011;31619;49.008;12.106;2022-10-28T01:42:55;11.13;;;9.27;;
45905;SDS011;31619;49.008;12.106;2022-10-28T01:45:38;11.02;;;9.20;;
45905;SDS011;31619;49.008;12.106;2022-10-28T01:48:28;9.80;;;8.80;;
45905;SDS011;31619;49.008;12.106;2022-10-28T01:50:56;10.70;;;9.65;;
45905;SDS011;31619;49.008;12.106;2022-10-28T01:53:29;10.10;;;9.13;;
45905;SDS011;31619;49.008;12.106;2022-10-28T01:56:02;10.65;;;9.02;;
45905;SDS011;31619;49.008;12.106;2022-10-28T01:58:32;10.32;;;8.93;;
45905;SDS011;31619;49.008;12.106;2022-10-28T02:01:00;10.88;;;9.23;;
45905;SDS011;31619;49.008;12.106;2022-10-28T02:03:30;13.35;;;9.95;;
45905;SDS011;31619;49.008;12.106;2022-10-28T02:05:56;11.43;;;10.05;;
45905;SDS011;31619;49.008;12.106;2022-10-28T02:19:35;11.77;;;10.63;;
45905;SDS011;31619;49.008;12.106;2022-10-28T02:27:54;13.38;;;11.00;;
45905;SDS011;31619;49.008;12.106;2022-10-28T02:30:28;13.27;;;11.43;;
45905;SDS011;31619;49.008;12.106;2022-10-28T02:33:09;16.88;;;12.52;;
45905;SDS011;31619;49.008;12.106;2022-10-28T02:35:58;15.40;;;13.25;;
45905;SDS011;31619;49.008;12.106;2022-10-28T02:38:35;17.67;;;13.48;;
45905;SDS011;31619;49.008;12.106;2022-10-28T02:41:11;17.67;;;13.68;;
45905;SDS011;31619;49.008;12.106;2022-10-28T02:43:46;19.33;;;13.07;;
45905;SDS011;31619;49.008;12.106;2022-10-28T02:46:16;16.02;;;12.90;;
45905;SDS011;31619;49.008;12.106;2022-10-28T02:48:47;18.20;;;14.02;;
45905;SDS011;31619;49.008;12.106;2022-10-28T02:51:19;14.50;;;12.88;;
45905;SDS011;31619;49.008;12.106;2022-10-28T02:56:28;15.07;;;12.18;;
45905;SDS011;31619;49.008;12.106;2022-10-28T02:58:56;15.35;;;13.43;;
45905;SDS011;31619;49.008;12.106;2022-10-28T03:01:22;15.05;;;13.48;;
45905;SDS011;31619;49.008;12.106;2022-10-28T03:03:47;16.25;;;13.13;;
45905;SDS011;31619;49.008;12.106;2022-10-28T03:06:13;20.67;;;13.23;;
45905;SDS011;31619;49.008;12.106;2022-10-28T03:08:39;18.30;;;13.32;;
45905;SDS011;31619;49.008;12.106;2022-10-28T03:11:04;15.88;;;12.43;;
45905;SDS011;31619;49.008;12.106;2022-10-28T03:13:30;14.45;;;13.05;;
45905;SDS011;31619;49.008;12.106;2022-10-28T03:15:56;13.93;;;11.70;;
45905;SDS011;31619;49.008;12.106;2022-10-28T03:18:21;12.68;;;11.38;;
45905;SDS011;31619;49.008;12.106;2022-10-28T03:20:47;12.18;;;11.00;;
45905;SDS011;31619;49.008;12.106;2022-10-28T03:23:13;15.77;;;11.07;;
45905;SDS011;31619;49.008;12.106;2022-10-28T03:25:38;13.10;;;11.35;;
45905;SDS011;31619;49.008;12.106;2022-10-28T03:28:04;13.35;;;11.57;;
45905;SDS011;31619;49.008;12.106;2022-10-28T03:30:30;12.35;;;11.00;;
45905;SDS011;31619;49.008;12.106;2022-10-28T03:32:55;15.82;;;12.00;;
45905;SDS011;31619;49.008;12.106;2022-10-28T03:35:21;11.25;;;10.13;;
45905;SDS011;31619;49.008;12.106;2022-10-28T03:37:46;11.98;;;10.77;;
45905;SDS011;31619;49.008;12.106;2022-10-28T03:40:12;13.05;;;11.68;;
45905;SDS011;31619;49.008;12.106;2022-10-28T03:42:41;12.70;;;11.15;;
45905;SDS011;31619;49.008;12.106;2022-10-28T03:45:07;13.57;;;11.68;;
45905;SDS011;31619;49.008;12.106;2022-10-28T03:47:34;15.15;;;12.07;;
45905;SDS011;31619;49.008;12.106;2022-10-28T03:50:00;13.35;;;11.82;;
45905;SDS011;31619;49.008;12.106;2022-10-28T03:52:26;14.18;;;11.43;;
45905;SDS011;31619;49.008;12.106;2022-10-28T03:54:51;15.68;;;12.45;;
45905;SDS011;31619;49.008;12.106;2022-10-28T03:57:17;14.13;;;11.93;;
45905;SDS011;31619;49.008;12.106;2022-10-28T03:59:43;15.43;;;12.05;;
45905;SDS011;31619;49.008;12.106;2022-10-28T04:02:08;13.82;;;11.52;;
45905;SDS011;31619;49.008;12.106;2022-10-28T04:04:35;14.38;;;12.07;;
45905;SDS011;31619;49.008;12.106;2022-10-28T04:07:00;21.75;;;12.93;;
45905;SDS011;31619;49.008;12.106;2022-10-28T04:09:26;13.45;;;12.05;;
45905;SDS011;31619;49.008;12.106;2022-10-28T04:11:52;14.93;;;12.80;;
45905;SDS011;31619;49.008;12.106;2022-10-28T04:14:18;16.23;;;13.05;;
45905;SDS011;31619;49.008;12.106;2022-10-28T04:16:43;14.13;;;10.93;;
45905;SDS011;31619;49.008;12.106;2022-10-28T04:19:09;14.18;;;12.68;;
45905;SDS011;31619;49.008;12.106;2022-10-28T04:21:34;17.27;;;12.77;;
45905;SDS011;31619;49.008;12.106;2022-10-28T04:24:01;17.58;;;12.82;;
45905;SDS011;31619;49.008;12.106;2022-10-28T04:26:26;19.25;;;13.90;;
45905;SDS011;31619;49.008;12.106;2022-10-28T04:28:52;14.75;;;12.77;;
45905;SDS011;31619;49.008;12.106;2022-10-28T04:31:17;14.23;;;12.65;;
45905;SDS011;31619;49.008;12.106;2022-10-28T04:33:43;16.75;;;12.98;;
45905;SDS011;31619;49.008;12.106;2022-10-28T04:36:09;14.27;;;12.63;;
45905;SDS011;31619;49.008;12.106;2022-10-28T04:38:34;16.65;;;12.88;;
45905;SDS011;31619;49.008;12.106;2022-10-28T04:41:00;15.63;;;13.07;;
45905;SDS011;31619;49.008;12.106;2022-10-28T04:43:25;15.75;;;13.20;;
45905;SDS011;31619;49.008;12.106;2022-10-28T04:45:51;18.15;;;13.60;;
45905;SDS011;31619;49.008;12.106;2022-10-28T04:48:17;18.05;;;13.35;;
45905;SDS011;31619;49.008;12.106;2022-10-28T04:50:42;15.05;;;12.88;;
45905;SDS011;31619;49.008;12.106;2022-10-28T04:53:08;16.73;;;12.35;;
45905;SDS011;31619;49.008;12.106;2022-10-28T04:55:34;20.98;;;13.73;;
45905;SDS011;31619;49.008;12.106;2022-10-28T04:58:00;18.67;;;13.27;;
45905;SDS011;31619;49.008;12.106;2022-10-28T05:00:26;16.33;;;13.68;;
45905;SDS011;31619;49.008;12.106;2022-10-28T05:02:53;19.17;;;13.82;;
45905;SDS011;31619;49.008;12.106;2022-10-28T05:05:19;17.83;;;13.52;;
45905;SDS011;31619;49.008;12.106;2022-10-28T05:07:45;17.15;;;13.50;;
45905;SDS011;31619;49.008;12.106;2022-10-28T05:10:11;17.75;;;14.35;;
45905;SDS011;31619;49.008;12.106;2022-10-28T05:12:42;20.20;;;14.95;;
45905;SDS011;31619;49.008;12.106;2022-10-28T05:15:09;20.73;;;14.82;;
45905;SDS011;31619;49.008;12.106;2022-10-28T05:17:42;19.52;;;14.88;;
45905;SDS011;31619;49.008;12.106;2022-10-28T05:20:10;18.42;;;13.60;;
45905;SDS011;31619;49.008;12.106;2022-10-28T05:22:36;16.92;;;13.35;;
45905;SDS011;31619;49.008;12.106;2022-10-28T05:25:03;26.77;;;14.48;;
45905;SDS011;31619;49.008;12.106;2022-10-28T05:27:29;20.00;;;14.30;;
45905;SDS011;31619;49.008;12.106;2022-10-28T05:29:54;30.80;;;14.05;;
45905;SDS011;31619;49.008;12.106;2022-10-28T05:32:20;21.92;;;14.63;;
45905;SDS011;31619;49.008;12.106;2022-10-28T05:34:46;23.52;;;14.25;;
45905;SDS011;31619;49.008;12.106;2022-10-28T05:37:11;18.13;;;14.30;;
45905;SDS011;31619;49.008;12.106;2022-10-28T05:39:37;35.17;;;14.55;;
45905;SDS011;31619;49.008;12.106;2022-10-28T05:42:02;28.33;;;15.40;;
45905;SDS011;31619;49.008;12.106;2022-10-28T05:44:28;23.27;;;14.63;;
45905;SDS011;31619;49.008;12.106;2022-10-28T05:46:54;22.80;;;14.63;;
45905;SDS011;31619;49.008;12.106;2022-10-28T05:49:20;27.30;;;13.88;;
45905;SDS011;31619;49.008;12.106;2022-10-28T05:51:46;31.00;;;14.50;;
45905;SDS011;31619;49.008;12.106;2022-10-28T05:54:12;21.27;;;14.48;;
45905;SDS011;31619;49.008;12.106;2022-10-28T05:56:37;26.33;;;14.73;;
45905;SDS011;31619;49.008;12.106;2022-10-28T05:59:03;22.15;;;15.00;;
45905;SDS011;31619;49.008;12.106;2022-10-28T06:01:29;20.23;;;14.05;;
45905;SDS011;31619;49.008;12.106;2022-10-28T06:03:54;26.38;;;14.52;;
45905;SDS011;31619;49.008;12.106;2022-10-28T06:06:20;27.88;;;14.60;;
45905;SDS011;31619;49.008;12.106;2022-10-28T06:08:46;40.30;;;14.65;;
45905;SDS011;31619;49.008;12.106;2022-10-28T06:11:11;23.77;;;13.90;;
45905;SDS011;31619;49.008;12.106;2022-10-28T06:13:37;21.75;;;11.75;;
45905;SDS011;31619;49.008;12.106;2022-10-28T06:16:03;23.02;;;13.43;;
45905;SDS011;31619;49.008;12.106;2022-10-28T06:18:28;26.88;;;14.05;;
45905;SDS011;31619;49.008;12.106;2022-10-28T06:20:57;15.73;;;12.13;;
45905;SDS011;31619;49.008;12.106;2022-10-28T06:23:24;32.58;;;14.35;;
45905;SDS011;31619;49.008;12.106;2022-10-28T06:26:00;18.38;;;13.05;;
45905;SDS011;31619;49.008;12.106;2022-10-28T06:28:27;33.85;;;14.40;;
45905;SDS011;31619;49.008;12.106;2022-10-28T06:31:15;29.15;;;13.88;;
45905;SDS011;31619;49.008;12.106;2022-10-28T06:33:40;21.40;;;13.23;;
45905;SDS011;31619;49.008;12.106;2022-10-28T06:36:07;19.25;;;13.32;;
45905;SDS011;31619;49.008;12.106;2022-10-28T06:38:33;20.27;;;13.82;;
45905;SDS011;31619;49.008;12.106;2022-10-28T06:40:58;26.83;;;12.85;;
45905;SDS011;31619;49.008;12.106;2022-10-28T06:43:24;16.58;;;12.27;;
45905;SDS011;31619;49.008;12.106;2022-10-28T06:45:50;15.48;;;12.98;;
45905;SDS011;31619;49.008;12.106;2022-10-28T06:48:20;19.00;;;12.32;;
45905;SDS011;31619;49.008;12.106;2022-10-28T06:50:46;16.90;;;12.93;;
45905;SDS011;31619;49.008;12.106;2022-10-28T06:53:11;25.27;;;13.88;;
45905;SDS011;31619;49.008;12.106;2022-10-28T06:55:37;13.57;;;11.93;;
45905;SDS011;31619;49.008;12.106;2022-10-28T06:58:03;15.15;;;11.85;;
45905;SDS011;31619;49.008;12.106;2022-10-28T07:00:29;27.08;;;12.90;;
45905;SDS011;31619;49.008;12.106;2022-10-28T07:02:55;22.45;;;13.38;;
45905;SDS011;31619;49.008;12.106;2022-10-28T07:05:21;24.70;;;11.82;;
45905;SDS011;31619;49.008;12.106;2022-10-28T07:07:49;18.55;;;12.45;;
45905;SDS011;31619;49.008;12.106;2022-10-28T07:10:15;26.10;;;12.50;;
45905;SDS011;31619;49.008;12.106;2022-10-28T07:12:45;12.98;;;11.63;;
45905;SDS011;31619;49.008;12.106;2022-10-28T07:15:11;17.02;;;11.98;;
45905;SDS011;31619;49.008;12.106;2022-10-28T07:17:37;13.38;;;11.60;;
45905;SDS011;31619;49.008;12.106;2022-10-28T07:20:03;20.45;;;12.48;;
45905;SDS011;31619;49.008;12.106;2022-10-28T07:22:29;12.60;;;11.30;;
45905;SDS011;31619;49.008;12.106;2022-10-28T07:24:54;13.10;;;11.82;;
45905;SDS011;31619;49.008;12.106;2022-10-28T07:27:20;14.38;;;12.27;;
45905;SDS011;31619;49.008;12.106;2022-10-28T07:29:45;14.15;;;12.65;;
45905;SDS011;31619;49.008;12.106;2022-10-28T07:32:11;13.05;;;11.60;;
45905;SDS011;31619;49.008;12.106;2022-10-28T07:34:36;17.73;;;11.13;;
45905;SDS011;31619;49.008;12.106;2022-10-28T07:37:02;13.77;;;11.45;;
45905;SDS011;31619;49.008;12.106;2022-10-28T07:39:29;14.13;;;12.07;;
45905;SDS011;31619;49.008;12.106;2022-10-28T07:41:55;13.43;;;11.68;;
45905;SDS011;31619;49.008;12.106;2022-10-28T07:44:21;13.10;;;11.80;;
45905;SDS011;31619;49.008;12.106;2022-10-28T07:46:48;15.00;;;13.40;;
45905;SDS011;31619;49.008;12.106;2022-10-28T07:49:14;13.45;;;12.10;;
45905;SDS011;31619;49.008;12.106;2022-10-28T07:51:41;13.98;;;12.48;;
45905;SDS011;31619;49.008;12.106;2022-10-28T07:54:07;14.32;;;12.98;;
45905;SDS011;31619;49.008;12.106;2022-10-28T07:56:44;17.88;;;12.27;;
45905;SDS011;31619;49.008;12.106;2022-10-28T07:59:10;15.07;;;13.57;;
45905;SDS011;31619;49.008;12.106;2022-10-28T08:01:35;14.68;;;13.18;;
45905;SDS011;31619;49.008;12.106;2022-10-28T08:04:01;14.88;;;12.95;;
45905;SDS011;31619;49.008;12.106;2022-10-28T08:06:27;15.38;;;13.75;;
45905;SDS011;31619;49.008;12.106;2022-10-28T08:08:54;14.82;;;13.32;;
45905;SDS011;31619;49.008;12.106;2022-10-28T08:11:20;15.52;;;13.80;;
45905;SDS011;31619;49.008;12.106;2022-10-28T08:13:48;15.35;;;13.15;;
45905;SDS011;31619;49.008;12.106;2022-10-28T08:16:14;14.73;;;13.23;;
45905;SDS011;31619;49.008;12.106;2022-10-28T08:18:40;15.57;;;14.07;;
45905;SDS011;31619;49.008;12.106;2022-10-28T08:21:07;15.00;;;13.48;;
45905;SDS011;31619;49.008;12.106;2022-10-28T08:23:34;15.15;;;13.55;;
45905;SDS011;31619;49.008;12.106;2022-10-28T08:26:03;16.95;;;15.20;;
45905;SDS011;31619;49.008;12.106;2022-10-28T08:28:29;16.45;;;14.80;;
45905;SDS011;31619;49.008;12.106;2022-10-28T08:30:58;16.20;;;14.70;;
45905;SDS011;31619;49.008;12.106;2022-10-28T08:33:25;17.67;;;15.38;;
45905;SDS011;31619;49.008;12.106;2022-10-28T08:35:50;18.00;;;15.27;;
45905;SDS011;31619;49.008;12.106;2022-10-28T08:38:16;16.33;;;14.63;;
45905;SDS011;31619;49.008;12.106;2022-10-28T08:40:48;16.02;;;14.32;;
45905;SDS011;31619;49.008;12.106;2022-10-28T08:43:39;18.35;;;14.98;;
45905;SDS011;31619;49.008;12.106;2022-10-28T08:49:02;16.05;;;14.38;;
45905;SDS011;31619;49.008;12.106;2022-10-28T08:56:57;15.13;;;13.70;;
45905;SDS011;31619;49.008;12.106;2022-10-28T08:59:29;14.95;;;13.55;;
45905;SDS011;31619;49.008;12.106;2022-10-28T09:02:34;16.63;;;14.48;;
45905;SDS011;31619;49.008;12.106;2022-10-28T09:04:57;14.70;;;12.88;;
45905;SDS011;31619;49.008;12.106;2022-10-28T09:07:43;14.35;;;12.65;;
45905;SDS011;31619;49.008;12.106;2022-10-28T09:10:09;13.98;;;12.57;;
45905;SDS011;31619;49.008;12.106;2022-10-28T09:12:50;12.40;;;10.85;;
45905;SDS011;31619;49.008;12.106;2022-10-28T09:18:19;13.88;;;12.35;;
45905;SDS011;31619;49.008;12.106;2022-10-28T09:21:12;12.45;;;11.05;;
45905;SDS011;31619;49.008;12.106;2022-10-28T09:24:23;13.25;;;11.57;;
45905;SDS011;31619;49.008;12.106;2022-10-28T09:27:03;13.07;;;11.60;;
45905;SDS011;31619;49.008;12.106;2022-10-28T09:32:42;12.77;;;11.40;;
45905;SDS011;31619;49.008;12.106;2022-10-28T09:35:16;13.23;;;11.07;;
45905;SDS011;31619;49.008;12.106;2022-10-28T09:37:52;15.55;;;11.55;;
45905;SDS011;31619;49.008;12.106;2022-10-28T09:40:29;14.32;;;11.85;;
45905;SDS011;31619;49.008;12.106;2022-10-28T09:43:06;12.00;;;10.57;;
45905;SDS011;31619;49.008;12.106;2022-10-28T09:45:45;12.60;;;11.35;;
45905;SDS011;31619;49.008;12.106;2022-10-28T09:50:52;12.93;;;11.38;;
45905;SDS011;31619;49.008;12.106;2022-10-28T09:53:25;13.18;;;10.25;;
45905;SDS011;31619;49.008;12.106;2022-10-28T09:55:59;11.10;;;10.00;;
45905;SDS011;31619;49.008;12.106;2022-10-28T09:58:26;12.15;;;10.70;;
45905;SDS011;31619;49.008;12.106;2022-10-28T10:00:51;14.95;;;10.32;;
45905;SDS011;31619;49.008;12.106;2022-10-28T10:03:17;12.07;;;9.75;;
45905;SDS011;31619;49.008;12.106;2022-10-28T10:05:44;9.95;;;8.38;;
45905;SDS011;31619;49.008;12.106;2022-10-28T10:08:16;10.82;;;7.90;;
45905;SDS011;31619;49.008;12.106;2022-10-28T10:13:20;8.65;;;7.80;;
45905;SDS011;31619;49.008;12.106;2022-10-28T10:15:59;10.68;;;8.75;;
45905;SDS011;31619;49.008;12.106;2022-10-28T10:18:33;9.18;;;8.27;;
45905;SDS011;31619;49.008;12.106;2022-10-28T10:21:00;8.80;;;7.88;;
45905;SDS011;31619;49.008;12.106;2022-10-28T10:26:05;8.70;;;7.55;;
45905;SDS011;31619;49.008;12.106;2022-10-28T10:31:21;9.45;;;6.63;;
45905;SDS011;31619;49.008;12.106;2022-10-28T10:33:50;7.63;;;6.25;;
45905;SDS011;31619;49.008;12.106;2022-10-28T10:36:18;8.05;;;6.55;;
45905;SDS011;31619;49.008;12.106;2022-10-28T10:38:48;11.63;;;6.55;;
45905;SDS011;31619;49.008;12.106;2022-10-28T10:41:32;7.15;;;6.40;;
45905;SDS011;31619;49.008;12.106;2022-10-28T10:44:09;6.88;;;6.15;;
45905;SDS011;31619;49.008;12.106;2022-10-28T10:49:33;8.40;;;6.10;;
45905;SDS011;31619;49.008;12.106;2022-10-28T10:52:03;7.25;;;4.88;;
45905;SDS011;31619;49.008;12.106;2022-10-28T10:54:34;5.57;;;5.07;;
45905;SDS011;31619;49.008;12.106;2022-10-28T10:57:07;7.03;;;5.75;;
45905;SDS011;31619;49.008;12.106;2022-10-28T10:59:34;6.00;;;5.40;;
45905;SDS011;31619;49.008;12.106;2022-10-28T11:02:13;7.57;;;5.65;;
45905;SDS011;31619;49.008;12.106;2022-10-28T11:04:55;5.47;;;5.05;;
45905;SDS011;31619;49.008;12.106;2022-10-28T11:07:23;5.50;;;5.00;;
45905;SDS011;31619;49.008;12.106;2022-10-28T11:09:50;5.40;;;4.93;;
45905;SDS011;31619;49.008;12.106;2022-10-28T11:12:23;4.97;;;4.47;;
45905;SDS011;31619;49.008;12.106;2022-10-28T11:14:53;5.53;;;4.82;;
45905;SDS011;31619;49.008;12.106;2022-10-28T11:17:28;6.50;;;5.47;;
45905;SDS011;31619;49.008;12.106;2022-10-28T11:19:59;8.82;;;5.25;;
45905;SDS011;31619;49.008;12.106;2022-10-28T11:22:52;5.32;;;4.65;;
45905;SDS011;31619;49.008;12.106;2022-10-28T11:25:31;6.68;;;5.10;;
45905;SDS011;31619;49.008;12.106;2022-10-28T11:28:16;4.88;;;4.47;;
45905;SDS011;31619;49.008;12.106;2022-10-28T11:31:02;5.32;;;4.78;;
45905;SDS011;31619;49.008;12.106;2022-10-28T11:41:33;9.65;;;4.55;;
45905;SDS011;31619;49.008;12.106;2022-10-28T11:47:07;4.05;;;3.70;;
45905;SDS011;31619;49.008;12.106;2022-10-28T11:58:36;7.15;;;4.47;;
45905;SDS011;31619;49.008;12.106;2022-10-28T12:01:27;3.95;;;3.60;;
45905;SDS011;31619;49.008;12.106;2022-10-28T12:06:48;3.55;;;3.35;;
45905;SDS011;31619;49.008;12.106;2022-10-28T12:20:35;3.20;;;2.95;;
45905;SDS011;31619;49.008;12.106;2022-10-28T12:23:09;3.67;;;2.95;;
45905;SDS011;31619;49.008;12.106;2022-10-28T12:25:39;4.45;;;3.88;;
45905;SDS011;31619;49.008;12.106;2022-10-28T12:30:59;8.35;;;3.95;;
45905;SDS011;31619;49.008;12.106;2022-10-28T12:38:36;4.32;;;2.65;;
45905;SDS011;31619;49.008;12.106;2022-10-28T12:41:13;5.00;;;2.60;;
45905;SDS011;31619;49.008;12.106;2022-10-28T12:44:24;3.20;;;3.00;;
45905;SDS011;31619;49.008;12.106;2022-10-28T12:49:26;3.45;;;3.15;;
45905;SDS011;31619;49.008;12.106;2022-10-28T12:51:52;3.42;;;2.83;;
45905;SDS011;31619;49.008;12.106;2022-10-28T12:57:29;3.42;;;3.10;;
45905;SDS011;31619;49.008;12.106;2022-10-28T13:05:39;5.47;;;3.03;;
45905;SDS011;31619;49.008;12.106;2022-10-28T13:08:15;3.55;;;2.85;;
45905;SDS011;31619;49.008;12.106;2022-10-28T13:10:57;4.40;;;2.72;;
45905;SDS011;31619;49.008;12.106;2022-10-28T13:19:25;3.08;;;2.50;;
45905;SDS011;31619;49.008;12.106;2022-10-28T13:27:44;4.40;;;2.53;;
45905;SDS011;31619;49.008;12.106;2022-10-28T13:30:16;3.08;;;2.30;;
45905;SDS011;31619;49.008;12.106;2022-10-28T13:32:43;2.70;;;2.50;;
45905;SDS011;31619;49.008;12.106;2022-10-28T13:35:30;5.20;;;2.65;;
45905;SDS011;31619;49.008;12.106;2022-10-28T13:37:56;4.72;;;2.67;;
45905;SDS011;31619;49.008;12.106;2022-10-28T13:42:56;3.30;;;3.00;;
45905;SDS011;31619;49.008;12.106;2022-10-28T13:58:55;6.10;;;3.58;;
45905;SDS011;31619;49.008;12.106;2022-10-28T14:04:36;3.30;;;2.85;;
45905;SDS011;31619;49.008;12.106;2022-10-28T14:09:34;2.88;;;2.63;;
45905;SDS011;31619;49.008;12.106;2022-10-28T14:12:21;3.40;;;3.10;;
45905;SDS011;31619;49.008;12.106;2022-10-28T14:17:23;6.18;;;3.92;;
45905;SDS011;31619;49.008;12.106;2022-10-28T14:20:04;8.63;;;3.85;;
45905;SDS011;31619;49.008;12.106;2022-10-28T14:22:44;4.80;;;3.08;;
45905;SDS011;31619;49.008;12.106;2022-10-28T14:33:32;3.13;;;2.80;;
45905;SDS011;31619;49.008;12.106;2022-10-28T14:38:48;4.45;;;2.90;;
45905;SDS011;31619;49.008;12.106;2022-10-28T14:49:32;3.58;;;3.25;;
45905;SDS011;31619;49.008;12.106;2022-10-28T14:52:04;3.75;;;3.20;;
45905;SDS011;31619;49.008;12.106;2022-10-28T14:54:37;3.00;;;2.70;;
45905;SDS011;31619;49.008;12.106;2022-10-28T14:57:06;5.75;;;3.75;;
45905;SDS011;31619;49.008;12.106;2022-10-28T14:59:35;2.88;;;2.67;;
45905;SDS011;31619;49.008;12.106;2022-10-28T15:02:13;5.70;;;3.53;;
45905;SDS011;31619;49.008;12.106;2022-10-28T15:05:00;3.78;;;3.08;;
45905;SDS011;31619;49.008;12.106;2022-10-28T15:07:44;3.83;;;3.10;;
45905;SDS011;31619;49.008;12.106;2022-10-28T15:12:41;4.63;;;3.20;;
45905;SDS011;31619;49.008;12.106;2022-10-28T15:17:45;5.65;;;3.55;;
45905;SDS011;31619;49.008;12.106;2022-10-28T15:20:17;2.95;;;2.75;;
45905;SDS011;31619;49.008;12.106;2022-10-28T15:22:52;3.88;;;3.20;;
45905;SDS011;31619;49.008;12.106;2022-10-28T15:25:34;4.40;;;3.53;;
45905;SDS011;31619;49.008;12.106;2022-10-28T15:27:59;5.05;;;3.42;;
45905;SDS011;31619;49.008;12.106;2022-10-28T15:30:25;4.35;;;3.40;;
45905;SDS011;31619;49.008;12.106;2022-10-28T15:32:51;3.55;;;3.35;;
45905;SDS011;31619;49.008;12.106;2022-10-28T15:37:54;5.22;;;3.58;;
45905;SDS011;31619;49.008;12.106;2022-10-28T15:40:32;4.90;;;3.53;;
45905;SDS011;31619;49.008;12.106;2022-10-28T15:42:59;5.18;;;3.85;;
45905;SDS011;31619;49.008;12.106;2022-10-28T15:45:28;6.35;;;4.18;;
45905;SDS011;31619;49.008;12.106;2022-10-28T15:47:56;4.35;;;3.95;;
45905;SDS011;31619;49.008;12.106;2022-10-28T15:53:18;4.38;;;4.00;;
45905;SDS011;31619;49.008;12.106;2022-10-28T15:55:45;6.60;;;4.03;;
45905;SDS011;31619;49.008;12.106;2022-10-28T16:00:53;7.43;;;4.88;;
45905;SDS011;31619;49.008;12.106;2022-10-28T16:03:26;8.00;;;5.05;;
45905;SDS011;31619;49.008;12.106;2022-10-28T16:06:05;6.10;;;4.88;;
45905;SDS011;31619;49.008;12.106;2022-10-28T16:08:45;6.03;;;4.43;;
45905;SDS011;31619;49.008;12.106;2022-10-28T16:11:17;7.32;;;4.90;;
45905;SDS011;31619;49.008;12.106;2022-10-28T16:13:45;5.88;;;5.13;;
45905;SDS011;31619;49.008;12.106;2022-10-28T16:16:13;6.32;;;4.70;;
45905;SDS011;31619;49.008;12.106;2022-10-28T16:18:48;5.15;;;4.65;;
45905;SDS011;31619;49.008;12.106;2022-10-28T16:21:32;5.18;;;4.63;;
45905;SDS011;31619;49.008;12.106;2022-10-28T16:23:58;6.35;;;5.13;;
45905;SDS011;31619;49.008;12.106;2022-10-28T16:26:24;4.95;;;4.35;;
45905;SDS011;31619;49.008;12.106;2022-10-28T16:28:51;6.45;;;5.18;;
45905;SDS011;31619;49.008;12.106;2022-10-28T16:31:17;5.80;;;5.22;;
45905;SDS011;31619;49.008;12.106;2022-10-28T16:33:44;8.27;;;5.13;;
45905;SDS011;31619;49.008;12.106;2022-10-28T16:36:10;4.93;;;4.43;;
45905;SDS011;31619;49.008;12.106;2022-10-28T16:38:36;8.52;;;4.22;;
45905;SDS011;31619;49.008;12.106;2022-10-28T16:41:03;4.78;;;4.30;;
45905;SDS011;31619;49.008;12.106;2022-10-28T16:43:30;7.53;;;5.00;;
45905;SDS011;31619;49.008;12.106;2022-10-28T16:45:56;10.80;;;5.15;;
45905;SDS011;31619;49.008;12.106;2022-10-28T16:48:24;5.72;;;4.93;;
45905;SDS011;31619;49.008;12.106;2022-10-28T16:50:52;7.05;;;5.10;;
45905;SDS011;31619;49.008;12.106;2022-10-28T16:53:19;7.45;;;5.40;;
45905;SDS011;31619;49.008;12.106;2022-10-28T16:55:45;6.15;;;5.53;;
45905;SDS011;31619;49.008;12.106;2022-10-28T16:58:11;5.65;;;5.10;;
45905;SDS011;31619;49.008;12.106;2022-10-28T17:00:37;5.65;;;5.07;;
45905;SDS011;31619;49.008;12.106;2022-10-28T17:03:04;10.70;;;5.35;;
45905;SDS011;31619;49.008;12.106;2022-10-28T17:05:29;6.90;;;5.97;;
45905;SDS011;31619;49.008;12.106;2022-10-28T17:07:55;7.82;;;6.18;;
45905;SDS011;31619;49.008;12.106;2022-10-28T17:10:23;8.75;;;7.35;;
45905;SDS011;31619;49.008;12.106;2022-10-28T17:12:50;8.45;;;6.88;;
45905;SDS011;31619;49.008;12.106;2022-10-28T17:15:16;8.27;;;6.47;;
45905;SDS011;31619;49.008;12.106;2022-10-28T17:17:42;6.80;;;6.13;;
45905;SDS011;31619;49.008;12.106;2022-10-28T17:20:08;6.22;;;5.70;;
45905;SDS011;31619;49.008;12.106;2022-10-28T17:22:33;5.72;;;4.95;;
45905;SDS011;31619;49.008;12.106;2022-10-28T17:24:59;13.63;;;5.07;;
45905;SDS011;31619;49.008;12.106;2022-10-28T17:27:25;6.10;;;4.88;;
45905;SDS011;31619;49.008;12.106;2022-10-28T17:29:50;6.55;;;5.03;;
45905;SDS011;31619;49.008;12.106;2022-10-28T17:32:16;10.75;;;5.60;;
45905;SDS011;31619;49.008;12.106;2022-10-28T17:34:42;5.95;;;4.78;;
45905;SDS011;31619;49.008;12.106;2022-10-28T17:37:08;7.07;;;5.22;;
45905;SDS011;31619;49.008;12.106;2022-10-28T17:39:34;7.13;;;5.43;;
45905;SDS011;31619;49.008;12.106;2022-10-28T17:42:00;6.43;;;5.35;;
45905;SDS011;31619;49.008;12.106;2022-10-28T17:44:26;8.82;;;5.20;;
45905;SDS011;31619;49.008;12.106;2022-10-28T17:46:51;6.70;;;6.00;;
45905;SDS011;31619;49.008;12.106;2022-10-28T17:49:17;7.30;;;6.47;;